PST: 10:57 MST: 11:57 CST: 12:57 EST: 13:57 LDN: 18:57 UTC: 17:57
User Agent: CCBot/2.0 (http://commoncrawl.org/faq/)
IP Address: 54.92.159.129
Hostname: ec2-54-92-159-129.compute-1.amazonaws.com

METAR:
KBFI 291753Z 28005KT 6SM HZ SCT015 19/11 A3005 RMK AO2 SLP174 T01890111 58010 $
KBFI 291653Z 00000KT 10SM SCT009 SCT015 19/11 A3008 RMK AO2 SLP184 T01890111 $
KBFI 291553Z 00000KT 10SM BKN007 17/11 A3008 RMK AO2 SLP184 T01670111 $
KBFI 291453Z 19005KT 10SM BKN006 OVC010 13/10 A3007 RMK AO2 SLP180 T01280100 52003 $
KBFI 291440Z 19005KT 10SM BKN006 OVC010 13/10 A3008 RMK AO2 T01280100 $

TAF:
KBFI 291611Z 2916/3012 00000KT P6SM BKN007
FM 291800 VRB03KT P6SM SCT020 SCT120
FM 292200 VRB03KT P6SM SCT050 SCT120
FM 301100 18006KT P6SM BKN015

KBFI 291414Z 2914/3012 VRB03KT P6SM SCT007 SCT120 TEMPO 2914/2916 5SM BR BKN007 BKN120
FM 292300 29006KT P6SM SCT050
FM 300500 VRB03KT P6SM SCT050
FM 301100 18006KT P6SM OVC016

KBFI 291141Z 2912/3012 VRB03KT P6SM SCT050
FM 292300 29006KT P6SM SCT050
FM 300500 VRB03KT P6SM SCT050
FM 301100 18006KT P6SM OVC016

KBFI 290536Z 2906/3006 30006KT P6SM SCT200
FM 291300 VRB03KT P6SM SCT050
FM 292300 29006KT P6SM SCT050

KBFI 290114Z 2901/2924 30007KT P6SM SCT110 OVC200 TEMPO 2901/2903 BKN110 OVC200
FM 290400 VRB03KT P6SM SCT200
FM 291900 20005KT P6SM FEW050

KBFI 282320Z 2900/2924 31008KT P6SM FEW030 BKN100 BKN150
FM 290400 VRB03KT P6SM SCT040
FM 291900 20005KT P6SM FEW050

KBFI 281720Z 2818/2918 18006KT P6SM SCT025 BKN100 BKN200
FM 281900 19006KT P6SM SCT030 BKN080 BKN200
FM 290000 30005KT P6SM SCT035 SCT080
FM 290300 VRB03KT P6SM SCT035